CLI weather

Clintonville Municipal Airport
Clintonville, Wisconsin, United States

Public forecast

Using degrees Fahrenheit for public forecast. Weather courtesy of forecast.io.

Current aviation weather report (METAR) for Clintonville Municipal Airport

Retrieved 2020/08/04 13:35 UTC (12 minutes ago):

KCLI 041335Z AUTO 35005KT 10SM CLR 14/08 A3014 RMK AO2 T01350084

Closest aviation forecast (TAF) to Clintonville Municipal Airport

Closest forecast is Appleton International Airport, 23.2 nm (43.0 km) SSE. Retrieved 2020/08/04 12:22 UTC (1 hour ago):

TAF KATW 041120Z 0412/0512 36005KT P6SM SKC FM041500 36011G16KT P6SM SCT040 FM041700 01008G15KT P6SM SCT045 TEMPO 0418/0422 BKN050 FM042300 01005KT P6SM SCT050 FM050200 VRB03KT P6SM SCT150